createdAt,value
2019-02-15T00:00:18.772Z,26.6
2019-02-15T00:01:09.093Z,26.6
2019-02-15T00:01:59.395Z,26.8
2019-02-15T00:02:48.205Z,26.9
2019-02-15T00:03:39.553Z,27.1
2019-02-15T00:04:29.393Z,27.3
2019-02-15T00:05:18.832Z,27.4
2019-02-15T00:06:09.439Z,27.6
2019-02-15T00:06:59.482Z,27.7
2019-02-15T00:07:49.903Z,27.8
2019-02-15T00:08:39.289Z,27.9
2019-02-15T00:09:27.687Z,27.9
2019-02-15T00:10:18.699Z,28.1
2019-02-15T00:11:07.962Z,28.1
2019-02-15T00:11:58.583Z,28.2
2019-02-15T00:12:49.409Z,28.3
2019-02-15T00:13:40.508Z,28.3
2019-02-15T00:14:30.537Z,28.4
2019-02-15T00:15:19.269Z,28.4
2019-02-15T00:16:10.192Z,28.5
2019-02-15T00:16:59.927Z,28.5
2019-02-15T00:17:50.477Z,28.5
2019-02-15T00:18:40.787Z,28.5
2019-02-15T00:19:30.147Z,28.5
2019-02-15T00:20:19.321Z,28.4
2019-02-15T00:21:10.783Z,28.3
2019-02-15T00:22:00.491Z,28.2
2019-02-15T00:22:49.775Z,28.2
2019-02-15T00:23:40.065Z,28.1
2019-02-15T00:24:31.266Z,27.6
2019-02-15T00:25:20.441Z,27.4
2019-02-15T00:26:10.556Z,27
2019-02-15T00:27:00.853Z,27.2
2019-02-15T00:27:50.058Z,26.8
2019-02-15T00:28:40.678Z,26.7
2019-02-15T00:29:30.779Z,26.7
2019-02-15T00:30:21.164Z,26.7
2019-02-15T00:31:10.836Z,26.8
2019-02-15T00:32:01.496Z,26.9
2019-02-15T00:32:50.431Z,27.1
2019-02-15T00:33:40.722Z,27.3
2019-02-15T00:34:31.673Z,27.5
2019-02-15T00:35:21.470Z,27.6
2019-02-15T00:36:10.988Z,27.7
2019-02-15T00:37:00.538Z,27.6
2019-02-15T00:37:51.364Z,27.4
2019-02-15T00:38:41.626Z,27.2
2019-02-15T00:39:30.985Z,27.1
2019-02-15T00:40:20.695Z,26.9
2019-02-15T00:41:10.733Z,27.2
2019-02-15T00:42:01.701Z,27.3
2019-02-15T00:42:51.157Z,27.1
2019-02-15T00:43:41.172Z,26.9
2019-02-15T00:44:32.090Z,26.7
2019-02-15T00:45:21.538Z,26.6
2019-02-15T00:46:11.045Z,26.6
2019-02-15T00:47:02.466Z,26.8
2019-02-15T00:47:52.230Z,27
2019-02-15T00:48:41.307Z,27.2
2019-02-15T00:49:31.915Z,27.4
2019-02-15T00:50:22.185Z,27.5
2019-02-15T00:51:12.210Z,27.6
2019-02-15T00:52:02.085Z,27.8
2019-02-15T00:53:42.682Z,27.9
2019-02-15T00:54:32.979Z,28
2019-02-15T00:55:23.897Z,28.1
2019-02-15T00:56:12.081Z,28.2
2019-02-15T00:57:02.372Z,28.3
2019-02-15T00:57:52.707Z,28.3
2019-02-15T00:58:43.267Z,28.4
2019-02-15T00:59:33.974Z,28.4
2019-02-15T01:00:22.529Z,28.5
2019-02-15T01:01:13.286Z,28.6
2019-02-15T01:02:02.187Z,28.6
2019-02-15T01:02:53.552Z,28.5
2019-02-15T01:03:43.185Z,28.4
2019-02-15T01:04:32.892Z,28.3
2019-02-15T01:05:23.093Z,28.3
2019-02-15T01:06:12.448Z,28.2
2019-02-15T01:07:03.551Z,28.1
2019-02-15T01:07:53.979Z,27.8
2019-02-15T01:08:44.199Z,27.4
2019-02-15T01:09:33.047Z,27.1
2019-02-15T01:10:23.856Z,27.1
2019-02-15T01:11:13.666Z,26.9
2019-02-15T01:12:03.915Z,26.8
2019-02-15T01:12:53.445Z,26.8
2019-02-15T01:13:43.446Z,26.7
2019-02-15T01:14:33.256Z,26.8
2019-02-15T01:15:24.398Z,26.9
2019-02-15T01:16:14.006Z,27.1
2019-02-15T01:17:04.286Z,27.3
2019-02-15T01:17:54.094Z,27.4
2019-02-15T01:18:44.716Z,27.6
2019-02-15T01:19:33.909Z,27.7
2019-02-15T01:21:14.521Z,27.9
2019-02-15T01:22:03.908Z,28
2019-02-15T01:22:53.898Z,28.1
2019-02-15T01:23:45.260Z,28.1
2019-02-15T01:24:34.215Z,28.3
2019-02-15T01:25:24.849Z,28.3
2019-02-15T01:26:14.341Z,28.4
2019-02-15T01:27:04.077Z,28.4
2019-02-15T01:27:55.220Z,28.5
2019-02-15T01:28:45.402Z,28.5
2019-02-15T01:29:35.097Z,28.6
2019-02-15T01:30:25.198Z,28.6
2019-02-15T01:31:15.220Z,28.6
2019-02-15T01:32:05.290Z,28.6
2019-02-15T01:32:55.610Z,28.4
2019-02-15T01:33:44.794Z,28.4
2019-02-15T01:34:34.992Z,28.3
2019-02-15T01:35:24.464Z,28.2
2019-02-15T01:36:15.602Z,28.1
2019-02-15T01:37:56.507Z,27.5
2019-02-15T01:38:46.102Z,27.1
2019-02-15T01:39:35.244Z,27.1
2019-02-15T01:40:25.577Z,26.9
2019-02-15T01:41:15.867Z,26.8
2019-02-15T01:42:05.942Z,26.8
2019-02-15T01:42:55.432Z,26.8
2019-02-15T01:43:50.957Z,26.8
2019-02-15T01:44:36.183Z,26.9
2019-02-15T01:45:25.756Z,27.1
2019-02-15T01:46:16.334Z,27.3
2019-02-15T01:47:07.205Z,27.4
2019-02-15T01:47:55.822Z,27.6
2019-02-15T01:48:46.144Z,27.8
2019-02-15T01:50:26.076Z,27.9
2019-02-15T01:51:16.424Z,28
2019-02-15T01:52:06.439Z,28.1
2019-02-15T01:52:56.777Z,28.2
2019-02-15T01:53:46.573Z,28.3
2019-02-15T01:54:36.085Z,28.4
2019-02-15T01:55:26.746Z,28.4
2019-02-15T01:56:16.281Z,28.5
2019-02-15T01:57:06.344Z,28.5
2019-02-15T01:57:56.885Z,28.6
2019-02-15T01:58:47.775Z,28.6
2019-02-15T01:59:36.907Z,28.6
2019-02-15T02:00:26.721Z,28.6
2019-02-15T02:01:16.520Z,28.6
2019-02-15T02:02:07.628Z,28.5
2019-02-15T02:02:56.957Z,28.4
2019-02-15T02:03:47.253Z,28.3
2019-02-15T02:04:36.920Z,28.3
2019-02-15T02:05:26.768Z,28.2
2019-02-15T02:07:07.394Z,27.5
2019-02-15T02:07:57.745Z,27.2
2019-02-15T02:08:48.374Z,27.1
2019-02-15T02:09:37.889Z,27
2019-02-15T02:10:27.407Z,26.8
2019-02-15T02:11:17.442Z,26.8
2019-02-15T02:12:07.604Z,26.8
2019-02-15T02:12:57.807Z,26.8
2019-02-15T02:13:57.505Z,26.9
2019-02-15T02:14:38.257Z,27.2
2019-02-15T02:15:28.061Z,27.3
2019-02-15T02:16:17.321Z,27.5
2019-02-15T02:17:08.902Z,27.6
2019-02-15T02:18:47.746Z,27.9
2019-02-15T02:19:38.347Z,28
2019-02-15T02:20:28.922Z,28.1
2019-02-15T02:21:18.242Z,28.1
2019-02-15T02:22:08.854Z,28
2019-02-15T02:23:47.257Z,27.6
2019-02-15T02:24:38.951Z,27.3
2019-02-15T02:25:28.434Z,27.2
2019-02-15T02:26:19.384Z,27.3
2019-02-15T02:27:08.595Z,27.5
2019-02-15T02:27:59.129Z,27.4
2019-02-15T02:28:49.172Z,27.3
2019-02-15T02:29:39.816Z,27.1
2019-02-15T02:30:29.677Z,26.8
2019-02-15T02:31:18.704Z,26.7
2019-02-15T02:32:09.791Z,26.8
2019-02-15T02:32:59.616Z,27
2019-02-15T02:33:49.864Z,27.2
2019-02-15T02:34:38.362Z,27.4
2019-02-15T02:35:29.592Z,27.6
2019-02-15T02:36:18.688Z,27.7
2019-02-15T02:37:59.683Z,27.9
2019-02-15T02:38:49.673Z,28
2019-02-15T02:39:39.486Z,28.1
2019-02-15T02:40:29.508Z,28.2
2019-02-15T02:41:20.202Z,28.3
2019-02-15T02:42:09.123Z,28.4
2019-02-15T02:43:00.520Z,28.4
2019-02-15T02:44:00.361Z,28.4
2019-02-15T02:44:40.021Z,28.5
2019-02-15T02:45:30.248Z,28.6
2019-02-15T02:46:20.509Z,28.6
2019-02-15T02:47:10.532Z,28.5
2019-02-15T02:48:00.614Z,28.4
2019-02-15T02:48:50.958Z,28.4
2019-02-15T02:49:40.921Z,28.3
2019-02-15T02:50:30.321Z,28.2
2019-02-15T02:51:20.237Z,28.1
2019-02-15T02:52:10.805Z,27.7
2019-02-15T02:53:01.773Z,27.4
2019-02-15T02:53:51.515Z,27.1
2019-02-15T02:54:41.699Z,27.3
2019-02-15T02:55:30.377Z,26.9
2019-02-15T02:56:20.919Z,26.8
2019-02-15T02:57:10.946Z,26.8
2019-02-15T02:58:01.255Z,26.8
2019-02-15T02:58:51.049Z,26.9
2019-02-15T02:59:41.912Z,27.1
2019-02-15T03:00:41.867Z,27.3
2019-02-15T03:01:24.316Z,27.5
2019-02-15T03:02:11.607Z,27.6
2019-02-15T03:03:01.610Z,27.8
2019-02-15T03:04:42.030Z,27.9
2019-02-15T03:08:14.549Z,28.3
2019-02-15T03:09:03.401Z,28.4
2019-02-15T03:09:54.419Z,28.4
2019-02-15T03:10:44.751Z,28.6
2019-02-15T03:11:34.462Z,28.6
2019-02-15T03:12:25.029Z,28.6
2019-02-15T03:13:14.824Z,28.6
2019-02-15T03:14:16.067Z,28.6
2019-02-15T03:14:55.638Z,28.6
2019-02-15T03:15:45.016Z,28.5
2019-02-15T03:16:34.845Z,28.4
2019-02-15T03:17:24.395Z,28.3
2019-02-15T03:18:16.646Z,28.3
2019-02-15T03:19:05.592Z,28.1
2019-02-15T03:19:55.111Z,27.9
2019-02-15T03:20:46.534Z,27.5
2019-02-15T03:21:34.917Z,27.2
2019-02-15T03:22:25.797Z,27.1
2019-02-15T03:23:15.127Z,27
2019-02-15T03:24:06.708Z,26.9
2019-02-15T03:24:56.890Z,26.9
2019-02-15T03:25:46.066Z,26.9
2019-02-15T03:26:35.830Z,26.9
2019-02-15T03:27:26.032Z,27
2019-02-15T03:28:16.427Z,27.2
2019-02-15T03:29:05.838Z,27.4
2019-02-15T03:29:55.252Z,27.6
2019-02-15T03:30:46.960Z,27.7
2019-02-15T03:32:26.711Z,27.9
2019-02-15T03:33:17.826Z,28.1
2019-02-15T03:34:06.666Z,28.1
2019-02-15T03:34:55.926Z,28.2
2019-02-15T03:35:45.670Z,28.3
2019-02-15T03:36:36.912Z,28.4
2019-02-15T03:37:27.329Z,28.4
2019-02-15T03:38:17.869Z,28.5
2019-02-15T03:39:07.020Z,28.6
2019-02-15T03:39:57.584Z,28.6
2019-02-15T03:40:47.647Z,28.6
2019-02-15T03:41:37.385Z,28.6
2019-02-15T03:42:27.257Z,28.6
2019-02-15T03:43:17.840Z,28.6
2019-02-15T03:44:07.491Z,28.4
2019-02-15T03:44:57.114Z,28.4
2019-02-15T03:45:48.331Z,28.3
2019-02-15T03:46:37.278Z,28.2
2019-02-15T03:47:28.076Z,28.1
2019-02-15T03:48:17.053Z,27.8
2019-02-15T03:49:07.976Z,27.4
2019-02-15T03:49:56.979Z,27.1
2019-02-15T03:50:48.293Z,27.3
2019-02-15T03:51:38.155Z,26.9
2019-02-15T03:52:27.890Z,26.9
2019-02-15T03:53:18.202Z,26.9
2019-02-15T03:54:06.940Z,26.9
2019-02-15T03:54:56.948Z,26.9
2019-02-15T03:55:47.924Z,27.1
2019-02-15T03:56:37.459Z,27.3
2019-02-15T03:57:27.481Z,27.5
2019-02-15T03:58:16.929Z,27.6
2019-02-15T03:59:07.157Z,27.8
2019-02-15T03:59:58.844Z,27.9
2019-02-15T04:00:48.696Z,28
2019-02-15T04:01:38.887Z,28.1
2019-02-15T04:02:27.512Z,28.2
2019-02-15T04:03:17.331Z,28.3
2019-02-15T04:04:07.295Z,28.4
2019-02-15T04:04:58.721Z,28.4
2019-02-15T04:05:49.058Z,28.5
2019-02-15T04:06:39.163Z,28.6
2019-02-15T04:07:29.317Z,28.6
2019-02-15T04:08:18.689Z,28.5
2019-02-15T04:09:09.627Z,28.3
2019-02-15T04:09:58.770Z,28
2019-02-15T04:10:49.353Z,27.8
2019-02-15T04:11:37.728Z,27.6
2019-02-15T04:12:32.628Z,27.7
2019-02-15T04:13:18.573Z,27.9
2019-02-15T04:14:09.244Z,27.6
2019-02-15T04:14:58.363Z,27.4
2019-02-15T04:15:49.488Z,27.3
2019-02-15T04:16:39.899Z,27.1
2019-02-15T04:17:28.851Z,27
2019-02-15T04:18:18.548Z,27.2
2019-02-15T04:19:08.584Z,27.4
2019-02-15T04:19:59.431Z,27.6
2019-02-15T04:20:49.264Z,27.8
2019-02-15T04:21:38.591Z,27.9
2019-02-15T04:22:29.336Z,28
2019-02-15T04:23:19.385Z,28.1
2019-02-15T04:24:13.435Z,28.2
2019-02-15T04:24:59.189Z,28.3
2019-02-15T04:25:49.835Z,28.4
2019-02-15T04:26:39.926Z,28.4
2019-02-15T04:27:30.042Z,28.5
2019-02-15T04:28:20.941Z,28.6
2019-02-15T04:29:10.184Z,28.6
2019-02-15T04:29:59.638Z,28.7
2019-02-15T04:30:50.348Z,28.6
2019-02-15T04:31:40.547Z,28.6
2019-02-15T04:32:31.361Z,28.5
2019-02-15T04:33:20.754Z,28.4
2019-02-15T04:34:10.701Z,28.3
2019-02-15T04:34:59.894Z,28.3
2019-02-15T04:35:50.704Z,28.1
2019-02-15T04:36:39.811Z,27.9
2019-02-15T04:37:29.842Z,27.6
2019-02-15T04:38:21.027Z,27.3
2019-02-15T04:39:11.179Z,27.1
2019-02-15T04:40:00.525Z,27.1
2019-02-15T04:40:50.935Z,26.9
2019-02-15T04:41:40.823Z,26.9
2019-02-15T04:42:31.043Z,26.9
2019-02-15T04:43:20.795Z,26.9
2019-02-15T04:44:12.251Z,27
2019-02-15T04:45:00.393Z,27.2
2019-02-15T04:45:51.579Z,27.4
2019-02-15T04:46:41.908Z,27.6
2019-02-15T04:47:31.200Z,27.7
2019-02-15T04:49:11.803Z,27.9
2019-02-15T04:50:01.948Z,28.1
2019-02-15T04:50:52.222Z,28.1
2019-02-15T04:51:42.235Z,28.3
2019-02-15T04:52:31.782Z,28.3
2019-02-15T04:53:22.315Z,28.4
2019-02-15T04:54:12.060Z,28.4
2019-02-15T04:55:01.900Z,28.5
2019-02-15T04:55:52.012Z,28.6
2019-02-15T04:56:42.366Z,28.6
2019-02-15T04:57:31.580Z,28.6
2019-02-15T04:58:22.128Z,28.7
2019-02-15T04:59:11.720Z,28.7
2019-02-15T05:00:02.707Z,28.6
2019-02-15T05:00:52.937Z,28.5
2019-02-15T05:01:42.570Z,28.4
2019-02-15T05:02:31.789Z,28.3
2019-02-15T05:03:26.457Z,28.3
2019-02-15T05:04:13.004Z,28.1
2019-02-15T05:05:02.455Z,27.9
2019-02-15T05:05:52.929Z,27.6
2019-02-15T05:06:42.552Z,27.3
2019-02-15T05:07:31.709Z,27.2
2019-02-15T05:08:22.820Z,27.1
2019-02-15T05:09:12.849Z,26.9
2019-02-15T05:10:02.887Z,26.9
2019-02-15T05:10:52.666Z,26.9
2019-02-15T05:11:43.361Z,26.9
2019-02-15T05:12:33.362Z,27.1
2019-02-15T05:13:23.256Z,27.3
2019-02-15T05:14:13.751Z,27.4
2019-02-15T05:15:03.595Z,27.6
2019-02-15T05:15:53.592Z,27.7
2019-02-15T05:16:43.426Z,27.9
2019-02-15T05:17:32.884Z,27.9
2019-02-15T05:18:23.766Z,28.1
2019-02-15T05:19:13.277Z,28.1
2019-02-15T05:20:04.014Z,28.3
2019-02-15T05:20:53.889Z,28.3
2019-02-15T05:21:44.533Z,28.4
2019-02-15T05:22:35.050Z,28.4
2019-02-15T05:23:23.899Z,28.5
2019-02-15T05:24:15.318Z,28.6
2019-02-15T05:25:04.748Z,28.6
2019-02-15T05:25:54.516Z,28.6
2019-02-15T05:26:43.740Z,28.6
2019-02-15T05:27:34.153Z,28.6
2019-02-15T05:28:24.404Z,28.6
2019-02-15T05:29:15.355Z,28.6
2019-02-15T05:30:04.887Z,28.6
2019-02-15T05:30:54.663Z,28.5
2019-02-15T05:31:44.363Z,28.5
2019-02-15T05:32:35.250Z,28.4
2019-02-15T05:33:23.740Z,28.4
2019-02-15T05:34:14.825Z,28.8
2019-02-15T05:35:05.350Z,27.7
2019-02-15T05:35:55.243Z,27.3
2019-02-15T05:36:45.540Z,27.1
2019-02-15T05:37:34.870Z,27.1
2019-02-15T05:38:25.465Z,27.1
2019-02-15T05:39:15.810Z,27.4
2019-02-15T05:40:04.701Z,27.9
2019-02-15T05:40:55.599Z,28.3
2019-02-15T05:41:45.959Z,28.6
2019-02-15T05:42:35.479Z,28.8
2019-02-15T05:43:25.208Z,29
2019-02-15T05:44:17.572Z,29.2
2019-02-15T05:45:14.579Z,29.3
2019-02-15T05:45:54.270Z,29.3
2019-02-15T05:46:46.599Z,29.3
2019-02-15T05:47:36.025Z,29.3
2019-02-15T05:48:24.704Z,29.3
2019-02-15T05:49:15.867Z,29.3
2019-02-15T05:50:06.265Z,29.3
2019-02-15T05:50:55.962Z,29.1
2019-02-15T05:51:49.023Z,29.1
2019-02-15T05:52:36.054Z,28.9
2019-02-15T05:53:26.699Z,28.8
2019-02-15T05:54:16.141Z,28.8
2019-02-15T05:55:05.489Z,28.9
2019-02-15T05:55:56.379Z,29.1
2019-02-15T05:56:46.662Z,29.3
2019-02-15T05:57:36.429Z,29.5
2019-02-15T05:58:25.926Z,29.6
2019-02-15T05:59:15.126Z,29.7
2019-02-15T06:00:06.893Z,29.8
2019-02-15T06:00:56.656Z,29.8
2019-02-15T06:01:45.460Z,29.7
2019-02-15T06:02:37.087Z,29.7
2019-02-15T06:03:27.083Z,29.6
2019-02-15T06:06:15.336Z,29.2
2019-02-15T06:07:04.691Z,29
2019-02-15T06:07:55.901Z,28.8
2019-02-15T06:08:44.621Z,28.6
2019-02-15T06:09:34.890Z,28.4
2019-02-15T06:10:25.227Z,28.2
2019-02-15T06:11:19.024Z,28.1
2019-02-15T06:12:05.033Z,27.9
2019-02-15T06:12:55.218Z,27.8
2019-02-15T06:13:44.025Z,27.6
2019-02-15T06:14:35.055Z,27.5
2019-02-15T06:15:25.687Z,27.4
2019-02-15T06:16:15.085Z,27.3
2019-02-15T06:17:07.964Z,27.2
2019-02-15T06:17:56.009Z,27.1
2019-02-15T06:18:46.137Z,27.1
2019-02-15T06:19:34.446Z,26.9
2019-02-15T06:20:25.858Z,26.9
2019-02-15T06:21:15.950Z,26.8
2019-02-15T06:22:05.925Z,26.7
2019-02-15T06:22:55.545Z,26.6
2019-02-15T06:23:46.106Z,26.6
2019-02-15T06:24:36.430Z,26.5
2019-02-15T06:25:25.429Z,26.4
2019-02-15T06:26:16.216Z,26.4
2019-02-15T06:27:06.497Z,26.3
2019-02-15T06:27:57.332Z,26.3
2019-02-15T06:28:46.535Z,26.3
2019-02-15T06:29:35.377Z,26.2
2019-02-15T06:30:26.942Z,26.1
2019-02-15T06:31:15.539Z,26.1
2019-02-15T06:32:07.166Z,26
2019-02-15T06:32:56.711Z,26
2019-02-15T06:33:45.638Z,26
2019-02-15T06:34:36.018Z,25.9
2019-02-15T06:35:25.761Z,25.9
2019-02-15T06:36:17.231Z,25.8
2019-02-15T06:37:07.331Z,25.8
2019-02-15T06:37:57.323Z,25.8
2019-02-15T06:38:45.688Z,25.8
2019-02-15T06:39:36.871Z,25.7
2019-02-15T06:40:26.668Z,25.6
2019-02-15T06:41:19.443Z,25.6
2019-02-15T06:42:07.113Z,25.6
2019-02-15T06:42:57.769Z,25.6
2019-02-15T06:43:47.531Z,25.5
2019-02-15T06:44:37.153Z,25.5
2019-02-15T06:45:35.263Z,25.5
2019-02-15T06:46:17.640Z,25.4
2019-02-15T06:47:07.101Z,25.4
2019-02-15T06:47:58.031Z,25.4
2019-02-15T06:48:48.079Z,25.4
2019-02-15T06:49:37.841Z,25.3
2019-02-15T06:50:27.418Z,25.3
2019-02-15T06:51:18.025Z,25.3
2019-02-15T06:52:07.594Z,25.3
2019-02-15T06:52:57.606Z,25.3
2019-02-15T06:53:48.124Z,25.6
2019-02-15T06:54:37.922Z,26.2
2019-02-15T06:55:27.413Z,26.8
2019-02-15T06:56:18.029Z,27.3
2019-02-15T06:57:08.050Z,27.6
2019-02-15T06:57:58.357Z,27.9
2019-02-15T06:58:55.909Z,28.2
2019-02-15T06:59:37.375Z,28.4
2019-02-15T07:00:27.712Z,28.5
2019-02-15T07:01:18.902Z,28.5
2019-02-15T07:02:08.927Z,28.6
2019-02-15T07:02:57.965Z,28.6
2019-02-15T07:03:51.102Z,28.6
2019-02-15T07:06:14.774Z,28.4
2019-02-15T07:07:19.369Z,28.3
2019-02-15T07:07:55.163Z,28.1
2019-02-15T07:08:44.838Z,28
2019-02-15T07:11:15.377Z,28.1
2019-02-15T07:12:05.646Z,28.4
2019-02-15T07:12:55.906Z,28.7
2019-02-15T07:13:44.949Z,28.9
2019-02-15T07:14:35.106Z,29.1
2019-02-15T07:15:39.829Z,29.3
2019-02-15T07:16:15.071Z,29.4
2019-02-15T07:17:05.442Z,29.4
2019-02-15T07:17:55.996Z,29.4
2019-02-15T07:19:00.422Z,29.4
2019-02-15T07:20:05.021Z,29.4
2019-02-15T07:20:25.086Z,29.3
2019-02-15T07:21:16.394Z,29.3
2019-02-15T07:22:20.919Z,29.2
2019-02-15T07:23:10.801Z,29.1
2019-02-15T07:24:01.398Z,28.9
2019-02-15T07:25:25.444Z,28.8
2019-02-15T07:26:31.668Z,28.9
2019-02-15T07:27:05.170Z,29.2
2019-02-15T07:27:56.815Z,29.4
2019-02-15T07:28:48.725Z,29.6
2019-02-15T07:29:36.787Z,29.7
2019-02-15T07:30:26.416Z,29.8
2019-02-15T07:31:30.818Z,29.8
2019-02-15T07:32:04.638Z,29.8
2019-02-15T07:33:47.283Z,29.8
2019-02-15T07:34:50.287Z,29.8
2019-02-15T07:35:40.980Z,29.7
2019-02-15T07:36:18.220Z,29.6
2019-02-15T07:37:38.594Z,29.6
2019-02-15T07:37:57.081Z,29.4
2019-02-15T07:39:00.766Z,29.3
2019-02-15T07:39:52.854Z,29.3
2019-02-15T07:40:41.500Z,29.5
2019-02-15T07:41:31.565Z,29.7
2019-02-15T07:42:22.658Z,29.8
2019-02-15T07:43:46.746Z,30
2019-02-15T07:44:37.504Z,30.1
2019-02-15T07:45:44.180Z,30.1
2019-02-15T07:46:31.132Z,30.1
2019-02-15T07:47:07.931Z,30
2019-02-15T07:48:00.104Z,30
2019-02-15T07:48:46.845Z,29.9
2019-02-15T07:49:38.076Z,29.8
2019-02-15T07:50:28.405Z,29.8
2019-02-15T07:52:52.139Z,29.5
2019-02-15T07:53:02.501Z,29.7
2019-02-15T07:53:53.164Z,29.7
2019-02-15T07:54:41.961Z,29.9
2019-02-15T07:55:32.626Z,30
2019-02-15T07:56:22.201Z,30.1
2019-02-15T07:57:12.494Z,30.1
2019-02-15T07:58:02.512Z,30.2
2019-02-15T07:58:52.316Z,30.1
2019-02-15T07:59:41.978Z,30.1
2019-02-15T08:00:32.486Z,30.1
2019-02-15T08:01:21.826Z,30
2019-02-15T08:02:13.045Z,29.9
2019-02-15T08:03:02.613Z,29.9
2019-02-15T08:03:53.465Z,30
2019-02-15T08:04:42.911Z,30.2
2019-02-15T08:05:33.549Z,30.3
2019-02-15T08:06:23.411Z,30.3
2019-02-15T08:07:12.865Z,30.4
2019-02-15T08:08:02.191Z,30.4
2019-02-15T08:08:53.438Z,30.4
2019-02-15T08:09:43.367Z,30.3
2019-02-15T08:10:32.851Z,30.3
2019-02-15T08:11:22.281Z,30.3
2019-02-15T08:12:13.499Z,30.1
2019-02-15T08:13:02.961Z,30
2019-02-15T08:13:52.513Z,30.1
2019-02-15T08:14:44.005Z,30.2
2019-02-15T08:15:52.339Z,30.3
2019-02-15T08:16:24.045Z,30.4
2019-02-15T08:17:13.092Z,30.4
2019-02-15T08:18:03.380Z,30.5
2019-02-15T08:18:53.726Z,30.4
2019-02-15T08:19:44.537Z,30.4
2019-02-15T08:20:33.452Z,30.4
2019-02-15T08:21:23.833Z,30.3
2019-02-15T08:22:13.597Z,30.3
2019-02-15T08:23:04.243Z,30.4
2019-02-15T08:23:54.605Z,30.5
2019-02-15T08:24:43.187Z,30.6
2019-02-15T08:25:34.404Z,30.6
2019-02-15T08:26:24.252Z,30.6
2019-02-15T08:27:14.557Z,30.6
2019-02-15T08:28:03.439Z,30.5
2019-02-15T08:28:54.712Z,30.4
2019-02-15T08:29:43.571Z,30.4
2019-02-15T08:30:35.016Z,30.4
2019-02-15T08:31:24.554Z,30.6
2019-02-15T08:32:16.121Z,30.6
2019-02-15T08:33:04.594Z,30.7
2019-02-15T08:33:54.684Z,30.7
2019-02-15T08:34:46.389Z,30.7
2019-02-15T08:35:34.419Z,30.7
2019-02-15T08:36:25.420Z,30.6
2019-02-15T08:37:16.689Z,30.5
2019-02-15T08:38:05.061Z,30.6
2019-02-15T08:38:55.949Z,30.7
2019-02-15T08:39:45.632Z,30.8
2019-02-15T08:40:37.969Z,30.9
2019-02-15T08:41:26.024Z,30.9
2019-02-15T08:42:15.049Z,30.9
2019-02-15T08:43:05.563Z,30.9
2019-02-15T08:43:55.705Z,30.8
2019-02-15T08:44:45.601Z,30.8
2019-02-15T08:45:35.600Z,30.7
2019-02-15T08:46:25.456Z,30.6
2019-02-15T08:47:15.795Z,30.6
2019-02-15T08:48:06.587Z,30.8
2019-02-15T08:48:56.951Z,30.8
2019-02-15T08:49:46.735Z,30.9
2019-02-15T08:50:35.492Z,30.9
2019-02-15T08:51:25.600Z,30.9
2019-02-15T08:52:17.188Z,30.9
2019-02-15T08:53:05.788Z,30.8
2019-02-15T08:53:58.380Z,30.8
2019-02-15T08:54:45.905Z,30.8
2019-02-15T08:55:35.205Z,30.8
2019-02-15T08:56:26.708Z,30.9
2019-02-15T08:57:16.045Z,30.9
2019-02-15T08:58:05.932Z,31
2019-02-15T08:58:56.433Z,31
2019-02-15T08:59:46.994Z,30.9
2019-02-15T09:00:36.540Z,30.8
2019-02-15T09:01:26.238Z,30.7
2019-02-15T09:02:16.580Z,30.6
2019-02-15T09:03:22.630Z,30.6
2019-02-15T09:03:56.537Z,30.8
2019-02-15T09:04:47.358Z,30.9
2019-02-15T09:05:36.600Z,30.9
2019-02-15T09:06:26.310Z,31
2019-02-15T09:07:17.467Z,31.1
2019-02-15T09:08:06.167Z,31.1
2019-02-15T09:08:57.104Z,31.1
2019-02-15T09:09:47.687Z,31
2019-02-15T09:10:36.827Z,30.9
2019-02-15T09:11:27.577Z,30.8
2019-02-15T09:12:18.447Z,30.8
2019-02-15T09:13:07.609Z,30.9
2019-02-15T09:13:56.626Z,31.1
2019-02-15T09:14:46.657Z,31.1
2019-02-15T09:15:36.954Z,31.1
2019-02-15T09:16:27.498Z,31.1
2019-02-15T09:17:17.147Z,31.1
2019-02-15T09:18:06.601Z,31.1
2019-02-15T09:18:58.443Z,31
2019-02-15T09:19:48.221Z,31
2019-02-15T09:20:38.319Z,31.1
2019-02-15T09:21:28.399Z,31.1
2019-02-15T09:22:18.691Z,31.2
2019-02-15T09:23:08.748Z,31.3
2019-02-15T09:23:59.279Z,31.3
2019-02-15T09:24:47.874Z,31.2
2019-02-15T09:25:38.963Z,31.2
2019-02-15T09:26:28.731Z,31.1
2019-02-15T09:27:18.818Z,31.1
2019-02-15T09:28:08.353Z,31.1
2019-02-15T09:28:58.680Z,31.2
2019-02-15T09:29:48.684Z,31.3
2019-02-15T09:30:38.739Z,31.3
2019-02-15T09:31:28.595Z,31.3
2019-02-15T09:32:18.870Z,31.3
2019-02-15T09:33:08.926Z,31.3
2019-02-15T09:33:58.603Z,31.3
2019-02-15T09:34:49.290Z,31.2
2019-02-15T09:35:39.424Z,31.1
2019-02-15T09:36:29.677Z,31.2
2019-02-15T09:37:19.465Z,31.3
2019-02-15T09:38:09.900Z,31.4
2019-02-15T09:39:00.088Z,31.4
2019-02-15T09:39:49.658Z,31.4
2019-02-15T09:40:39.593Z,31.4
2019-02-15T09:41:29.452Z,31.4
2019-02-15T09:42:20.040Z,31.4
2019-02-15T09:43:09.888Z,31.3
2019-02-15T09:43:59.883Z,31.3
2019-02-15T09:44:50.674Z,31.4
2019-02-15T09:45:42.851Z,31.4
2019-02-15T09:46:30.237Z,31.5
2019-02-15T09:47:20.755Z,31.5
2019-02-15T09:48:09.960Z,31.5
2019-02-15T09:49:00.364Z,31.5
2019-02-15T09:49:54.342Z,31.4
2019-02-15T09:50:41.199Z,31.4
2019-02-15T09:51:29.985Z,31.3
2019-02-15T09:52:20.469Z,31.4
2019-02-15T09:53:10.287Z,31.4
2019-02-15T09:54:01.492Z,31.5
2019-02-15T09:54:51.254Z,31.5
2019-02-15T09:55:41.086Z,31.6
2019-02-15T09:56:31.672Z,31.6
2019-02-15T09:57:21.366Z,31.5
2019-02-15T09:58:10.729Z,31.4
2019-02-15T09:59:00.439Z,31.4
2019-02-15T09:59:51.254Z,31.5
2019-02-15T10:00:41.039Z,31.6
2019-02-15T10:01:31.376Z,31.6
2019-02-15T10:02:20.078Z,31.6
2019-02-15T10:03:10.699Z,31.7
2019-02-15T10:04:03.878Z,31.6
2019-02-15T10:04:51.122Z,31.6
2019-02-15T10:07:15.114Z,31.4
2019-02-15T10:08:04.377Z,31.5
2019-02-15T10:08:53.939Z,31.6
2019-02-15T10:09:46.603Z,31.6
2019-02-15T10:10:35.153Z,31.6
2019-02-15T10:11:24.826Z,31.5
2019-02-15T10:12:14.673Z,31.4
2019-02-15T10:13:04.473Z,31.4
2019-02-15T10:13:54.443Z,31.3
2019-02-15T10:14:44.216Z,31
2019-02-15T10:15:35.678Z,30.6
2019-02-15T10:16:36.820Z,30.1
2019-02-15T10:17:13.955Z,29.8
2019-02-15T10:18:03.975Z,29.5
2019-02-15T10:18:55.800Z,29.3
2019-02-15T10:19:45.475Z,29
2019-02-15T10:20:33.905Z,28.9
2019-02-15T10:21:25.820Z,28.9
2019-02-15T10:22:17.478Z,28.9
2019-02-15T10:23:05.375Z,28.8
2019-02-15T10:23:55.465Z,28.8
2019-02-15T10:24:46.140Z,28.8
2019-02-15T10:25:36.380Z,28.8
2019-02-15T10:26:25.857Z,28.7
2019-02-15T10:27:15.302Z,28.6
2019-02-15T10:28:05.819Z,28.6
2019-02-15T10:28:55.935Z,28.4
2019-02-15T10:29:45.529Z,28.4
2019-02-15T10:30:36.210Z,28.4
2019-02-15T10:31:25.973Z,28.3
2019-02-15T10:32:17.114Z,28.2
2019-02-15T10:33:06.144Z,28.1
2019-02-15T10:33:56.172Z,28.1
2019-02-15T10:34:46.554Z,28.1
2019-02-15T10:35:36.526Z,28
2019-02-15T10:36:28.621Z,27.9
2019-02-15T10:37:15.037Z,27.9
2019-02-15T10:38:56.863Z,27.8
2019-02-15T10:39:46.867Z,27.7
2019-02-15T10:40:36.314Z,27.7
2019-02-15T10:41:26.411Z,27.6
2019-02-15T10:42:31.439Z,27.6
2019-02-15T10:43:05.971Z,27.5
2019-02-15T10:43:59.527Z,27.5
2019-02-15T10:44:47.109Z,27.4
2019-02-15T10:45:35.939Z,27.4
2019-02-15T10:46:26.741Z,27.4
2019-02-15T10:47:34.406Z,27.3
2019-02-15T10:48:06.929Z,27.3
2019-02-15T10:48:57.498Z,27.3
2019-02-15T10:49:47.226Z,27.2
2019-02-15T10:50:36.742Z,27.2
2019-02-15T10:51:27.972Z,27.1
2019-02-15T10:52:17.128Z,27.1
2019-02-15T10:53:07.321Z,27.1
2019-02-15T10:53:57.903Z,27
2019-02-15T10:54:47.496Z,26.9
2019-02-15T10:55:38.936Z,26.9
2019-02-15T10:56:27.541Z,26.9
2019-02-15T10:57:18.370Z,26.9
2019-02-15T10:58:08.303Z,26.9
2019-02-15T10:58:57.591Z,26.8
2019-02-15T10:59:48.043Z,26.8
2019-02-15T11:00:36.921Z,26.8
2019-02-15T11:01:27.636Z,26.7
2019-02-15T11:02:17.225Z,26.7
2019-02-15T11:03:07.946Z,26.7
2019-02-15T11:03:57.023Z,26.6
2019-02-15T11:04:49.259Z,26.6
2019-02-15T11:05:38.857Z,26.6
2019-02-15T11:06:28.372Z,26.6
2019-02-15T11:07:18.147Z,26.6
2019-02-15T11:08:09.100Z,26.6
2019-02-15T11:08:58.837Z,26.5
2019-02-15T11:09:48.030Z,26.5
2019-02-15T11:10:41.139Z,26.5
2019-02-15T11:11:28.719Z,26.5
2019-02-15T11:12:19.100Z,26.4
2019-02-15T11:13:08.872Z,26.4
2019-02-15T11:13:57.820Z,26.4
2019-02-15T11:14:49.472Z,26.3
2019-02-15T11:15:39.524Z,26.3
2019-02-15T11:16:28.545Z,26.3
2019-02-15T11:17:18.984Z,26.3
2019-02-15T11:18:09.574Z,26.2
2019-02-15T11:19:00.061Z,26.2
2019-02-15T11:19:49.547Z,26.1
2019-02-15T11:20:39.086Z,26.1
2019-02-15T11:21:29.737Z,26.1
2019-02-15T11:22:19.726Z,26
2019-02-15T11:23:09.568Z,25.9
2019-02-15T11:23:59.859Z,25.9
2019-02-15T11:24:49.048Z,25.9
2019-02-15T11:25:40.221Z,25.9
2019-02-15T11:26:34.966Z,25.9
2019-02-15T11:27:20.358Z,25.9
2019-02-15T11:28:10.653Z,25.9
2019-02-15T11:28:59.891Z,25.8
2019-02-15T11:29:50.983Z,25.9
2019-02-15T11:30:40.607Z,25.8
2019-02-15T11:31:30.719Z,25.7